Time;durP1;ratioP1;P1;durP2;ratioP2;P2;SDS_P1;SDS_P2;PMS_P1;PMS_P2;Temp;Humidity;BMP_temperature;BMP_pressure;BME280_temperature;BME280_humidity;BME280_pressure;Samples;Min_cycle;Max_cycle;Signal;HPM_P1;HPM_P2
2020/12/07 00:02:05;;;;;;;;;1.00;1.00;;;;;12.31;68.69;99874.47;5072271;28;11477;-86
2020/12/07 00:04:31;;;;;;;;;1.00;1.00;;;;;12.23;68.71;99871.88;5072029;28;12234;-86
2020/12/07 00:06:59;;;;;;;;;1.00;0.00;;;;;12.33;67.74;99862.19;5072312;28;11529;-86
2020/12/07 00:09:26;;;;;;;;;0.00;0.00;;;;;11.79;68.06;99804.69;5071840;28;11494;-83
2020/12/07 00:11:52;;;;;;;;;0.00;0.00;;;;;12.29;67.97;99865.72;5071820;28;11492;-81
2020/12/07 00:14:18;;;;;;;;;0.00;0.00;;;;;12.10;68.54;99882.41;5071723;28;12293;-81
2020/12/07 00:16:45;;;;;;;;;0.00;0.00;;;;;12.10;67.56;99877.16;5071558;28;11578;-81
2020/12/07 00:19:12;;;;;;;;;0.00;0.00;;;;;11.86;67.08;99827.44;5071535;28;12189;-80
2020/12/07 00:21:38;;;;;;;;;0.00;0.00;;;;;11.58;67.58;99789.88;5071375;28;11656;-82
2020/12/07 00:24:04;;;;;;;;;1.00;0.00;;;;;12.24;68.10;99878.00;5071712;28;11570;-83
2020/12/07 00:26:31;;;;;;;;;0.00;0.00;;;;;11.81;70.58;99894.78;5071715;28;11499;-83
2020/12/07 00:28:58;;;;;;;;;0.00;0.00;;;;;11.32;70.31;99874.72;5071701;28;12211;-81
2020/12/07 00:31:25;;;;;;;;;0.00;0.00;;;;;11.32;69.85;99880.81;5070664;28;11496;-82
2020/12/07 00:33:57;;;;;;;;;0.00;0.00;;;;;11.51;67.98;99855.44;5071004;28;11481;-82
2020/12/07 00:36:24;;;;;;;;;0.00;0.00;;;;;11.35;67.40;99877.31;5071386;28;11640;-82
2020/12/07 00:38:51;;;;;;;;;0.00;0.00;;;;;11.29;68.71;99906.16;5070979;28;12229;-81
2020/12/07 00:41:20;;;;;;;;;0.00;0.00;;;;;11.26;69.96;99891.31;5071323;28;11555;-79
2020/12/07 00:43:47;;;;;;;;;0.00;0.00;;;;;10.50;70.46;99802.22;5070853;28;11500;-81
2020/12/07 00:46:14;;;;;;;;;0.00;0.00;;;;;10.94;70.73;99881.69;5071146;28;11556;-80
2020/12/07 00:48:40;;;;;;;;;0.00;0.00;;;;;11.08;71.32;99885.19;5070904;28;11478;-81
2020/12/07 00:51:07;;;;;;;;;0.00;0.00;;;;;11.18;71.66;99877.34;5071164;28;11505;-80
2020/12/07 00:53:35;;;;;;;;;0.00;0.00;;;;;10.95;71.93;99878.22;5070990;28;12343;-80
2020/12/07 00:56:01;;;;;;;;;0.00;0.00;;;;;10.84;71.45;99870.31;5070937;28;11721;-81
2020/12/07 00:58:28;;;;;;;;;0.00;0.00;;;;;10.88;71.14;99877.31;5070712;28;11547;-81
2020/12/07 01:00:55;;;;;;;;;0.00;0.00;;;;;11.34;69.83;99888.69;5070917;28;12186;-81
2020/12/07 01:03:21;;;;;;;;;0.00;0.00;;;;;11.34;69.89;99893.94;5070802;28;11480;-80
2020/12/07 01:05:47;;;;;;;;;0.50;0.00;;;;;11.06;69.64;99892.19;5070169;28;11567;-79
2020/12/07 01:08:14;;;;;;;;;0.00;0.00;;;;;11.24;69.30;99886.94;5070447;28;12339;-81
2020/12/07 01:10:40;;;;;;;;;0.00;0.00;;;;;11.39;69.59;99897.41;5070586;28;11481;-82
2020/12/07 01:13:06;;;;;;;;;1.00;0.00;;;;;11.52;69.15;99884.28;5070550;28;11584;-80
2020/12/07 01:15:32;;;;;;;;;0.00;0.00;;;;;11.45;68.97;99886.91;5070154;28;11458;-81
2020/12/07 01:18:00;;;;;;;;;0.00;0.00;;;;;11.78;69.26;99914.00;5070544;28;11457;-81
2020/12/07 01:20:26;;;;;;;;;0.00;0.00;;;;;11.83;69.04;99898.25;5070275;28;11572;-80
2020/12/07 01:22:52;;;;;;;;;1.00;0.00;;;;;11.92;69.15;99874.63;5070431;28;11555;-80
2020/12/07 01:25:18;;;;;;;;;0.00;0.00;;;;;11.85;69.19;99863.25;5070466;28;11489;-80
2020/12/07 01:27:45;;;;;;;;;0.00;0.00;;;;;11.65;68.95;99822.25;5070264;28;11462;-81
2020/12/07 01:30:11;;;;;;;;;0.00;0.00;;;;;11.81;68.81;99860.66;5070259;28;11474;-79
2020/12/07 01:32:37;;;;;;;;;0.00;0.00;;;;;11.81;69.21;99850.19;5062183;28;11465;-80
2020/12/07 01:35:07;;;;;;;;;0.00;0.00;;;;;11.85;68.79;99862.38;5070356;28;11480;-80
2020/12/07 01:37:33;;;;;;;;;0.00;0.00;;;;;11.84;68.80;99855.41;5069905;28;11449;-81
2020/12/07 01:40:00;;;;;;;;;0.00;0.00;;;;;11.41;68.81;99786.44;5070516;28;11482;-83
2020/12/07 01:42:26;;;;;;;;;0.00;0.00;;;;;11.81;68.67;99856.28;5069951;28;11508;-81
2020/12/07 01:44:52;;;;;;;;;0.00;0.00;;;;;11.74;68.35;99853.66;5069836;28;11539;-82
2020/12/07 01:47:23;;;;;;;;;0.00;0.00;;;;;11.62;68.02;99820.50;5069948;28;11461;-80
2020/12/07 01:49:51;;;;;;;;;0.00;0.00;;;;;11.74;68.20;99843.19;5070009;28;11500;-83
2020/12/07 01:52:20;;;;;;;;;0.00;0.00;;;;;11.70;67.96;99830.97;5070144;28;11487;-82
2020/12/07 01:54:48;;;;;;;;;0.00;0.00;;;;;11.81;68.16;99837.06;5069930;28;11505;-82
2020/12/07 01:57:14;;;;;;;;;0.00;0.00;;;;;11.45;68.46;99798.69;5069937;28;11494;-84
2020/12/07 01:59:40;;;;;;;;;0.00;0.00;;;;;11.63;68.00;99819.63;5069743;28;11532;-82
2020/12/07 02:02:07;;;;;;;;;0.00;0.00;;;;;11.74;68.44;99837.94;5069937;28;12268;-83
2020/12/07 11:26:57;;;;;;;;;0.75;0.00;;;;;20.25;37.47;100100.75;4949091;27;819204;-73
2020/12/07 11:29:23;;;;;;;;;0.50;0.00;;;;;18.53;38.22;100101.44;5046445;28;11322;-74
2020/12/07 11:31:49;;;;;;;;;0.00;0.00;;;;;18.90;38.66;100104.88;5012980;28;12133;-73
2020/12/07 11:34:19;;;;;;;;;0.25;0.00;;;;;18.18;39.35;100112.06;5037428;28;11408;-72
2020/12/07 11:36:46;;;;;;;;;0.00;0.00;;;;;18.14;40.87;100115.69;5036834;28;11446;-76
2020/12/07 11:39:23;;;;;;;;;0.50;0.00;;;;;18.15;40.96;100101.53;5037552;28;11413;-75
2020/12/07 11:42:02;;;;;;;;;0.00;0.00;;;;;17.91;39.92;100112.72;5037038;28;11415;-75
2020/12/07 11:44:29;;;;;;;;;0.00;0.00;;;;;18.79;40.51;100101.63;5035134;28;11408;-73
2020/12/07 11:46:57;;;;;;;;;0.00;0.00;;;;;18.05;39.86;100106.19;5037779;28;12159;-75
2020/12/07 11:49:24;;;;;;;;;1.00;0.00;;;;;17.52;41.65;100113.63;5035883;28;11497;-74
2020/12/07 11:51:50;;;;;;;;;1.00;0.00;;;;;17.42;39.54;100112.09;5035088;28;11419;-73
2020/12/07 11:54:16;;;;;;;;;0.00;0.00;;;;;16.98;40.50;100106.81;5037130;28;11492;-72
2020/12/07 11:56:42;;;;;;;;;0.00;0.00;;;;;17.32;41.75;100090.19;5041425;28;11426;-71
2020/12/07 11:59:09;;;;;;;;;0.00;0.00;;;;;17.06;41.72;100110.16;5044820;28;11511;-73
2020/12/07 12:01:37;;;;;;;;;0.00;0.00;;;;;15.93;42.07;100096.34;5045072;28;11449;-72
2020/12/07 12:04:05;;;;;;;;;0.75;0.00;;;;;15.63;43.09;100106.50;5045130;28;11479;-73
2020/12/07 12:06:34;;;;;;;;;0.00;0.00;;;;;15.36;42.79;100104.22;5043467;28;11494;-72
2020/12/07 12:09:01;;;;;;;;;0.75;0.00;;;;;15.17;42.05;100073.66;5036484;28;11448;-74
2020/12/07 12:11:29;;;;;;;;;0.00;0.00;;;;;15.26;42.49;100095.50;5034126;28;11531;-74
2020/12/07 12:13:55;;;;;;;;;1.75;1.00;;;;;19.02;52.55;100068.25;5035357;28;11535;-93
2020/12/07 12:16:24;;;;;;;;;1.00;0.00;;;;;17.40;43.54;100082.09;5035945;28;11575;-86
2020/12/07 12:18:51;;;;;;;;;0.00;0.00;;;;;16.16;43.67;100088.00;5034638;28;11723;-89
2020/12/07 12:21:19;;;;;;;;;0.00;0.00;;;;;15.39;42.65;100101.53;5038741;28;11496;-80
2020/12/07 12:23:46;;;;;;;;;0.00;0.00;;;;;15.05;44.08;100100.19;5033406;28;11488;-86
2020/12/07 12:26:12;;;;;;;;;1.00;0.00;;;;;16.13;44.80;100088.94;5036812;28;11575;-88
2020/12/07 12:28:39;;;;;;;;;0.00;0.00;;;;;15.70;44.82;100087.88;5034515;28;11501;-82
2020/12/07 12:31:05;;;;;;;;;0.00;0.00;;;;;15.82;46.46;100079.78;5037486;28;11587;-81
2020/12/07 12:33:32;;;;;;;;;0.25;0.00;;;;;16.09;43.01;100070.53;5043850;28;11462;-88
2020/12/07 12:35:59;;;;;;;;;0.75;0.75;;;;;16.94;49.55;100065.44;5045068;28;11610;-88
2020/12/07 12:38:25;;;;;;;;;0.00;0.00;;;;;15.30;44.57;100096.34;5022824;28;11489;-87
2020/12/07 12:40:52;;;;;;;;;0.00;0.00;;;;;15.07;46.69;100103.69;5022017;28;11571;-86
2020/12/07 12:43:18;;;;;;;;;3.00;0.00;;;;;15.05;46.01;100073.81;5023864;28;11476;-84
2020/12/07 12:45:45;;;;;;;;;0.00;0.00;;;;;15.16;49.49;100087.75;5024699;28;11580;-81
2020/12/07 12:48:11;;;;;;;;;0.00;0.00;;;;;14.69;46.87;100105.88;5027799;28;11554;-77
2020/12/07 12:50:37;;;;;;;;;0.50;0.50;;;;;14.94;52.37;100108.22;5018245;28;11596;-79
2020/12/07 12:53:04;;;;;;;;;0.00;0.00;;;;;14.79;47.17;100118.06;5023617;28;11500;-85
2020/12/07 12:55:31;;;;;;;;;0.00;0.00;;;;;14.98;48.43;100103.78;5015321;28;11531;-81
2020/12/07 12:59:07;;;;;;;;;0.75;0.00;;;;;14.76;48.81;100118.97;5107906;27;909945;-81
2020/12/07 13:01:36;;;;;;;;;0.00;0.00;;;;;14.56;49.75;100120.06;5120294;27;11611;-82
2020/12/07 13:04:02;;;;;;;;;0.25;0.00;;;;;14.41;50.89;100121.06;5112883;27;11551;-78
2020/12/07 13:06:33;;;;;;;;;1.00;1.00;;;;;14.56;52.06;100130.63;5115369;27;11446;-76
2020/12/07 13:08:59;;;;;;;;;0.00;0.00;;;;;14.96;51.69;100142.47;5114357;27;11545;-77
2020/12/07 13:11:29;;;;;;;;;1.00;1.00;;;;;14.90;51.24;100155.72;5116301;27;11540;-75
2020/12/07 13:13:55;;;;;;;;;1.00;0.00;;;;;14.85;50.53;100154.91;5115871;27;11441;-79
2020/12/07 13:16:25;;;;;;;;;0.00;0.00;;;;;14.52;47.55;100149.97;5113228;27;11535;-76
2020/12/07 13:18:54;;;;;;;;;0.00;0.00;;;;;14.31;43.46;100144.88;5116993;27;11438;-78
2020/12/07 13:21:24;;;;;;;;;0.00;0.00;;;;;13.39;42.53;100157.75;5112617;27;11444;-81
2020/12/07 13:23:58;;;;;;;;;0.00;0.00;;;;;13.21;44.15;100184.97;5118243;27;11431;-84
2020/12/07 13:26:33;;;;;;;;;0.00;0.00;;;;;13.03;43.07;100178.91;5111665;27;11449;-75
2020/12/07 13:29:00;;;;;;;;;0.00;0.00;;;;;12.91;43.80;100189.41;5111165;27;11452;-77
2020/12/07 13:31:27;;;;;;;;;1.00;1.00;;;;;12.87;44.92;100183.31;5113785;27;11441;-78
2020/12/07 13:33:53;;;;;;;;;0.00;0.00;;;;;12.64;46.69;100227.13;5115345;27;11430;-79
2020/12/07 13:36:19;;;;;;;;;0.00;0.00;;;;;12.82;45.27;100232.34;5112580;27;12165;-80
2020/12/07 13:38:47;;;;;;;;;1.25;0.00;;;;;12.16;50.65;100260.34;5113893;27;11521;-79
2020/12/07 13:41:14;;;;;;;;;0.00;0.00;;;;;11.35;54.34;100273.13;5113527;27;11440;-78
2020/12/07 13:43:41;;;;;;;;;0.00;0.00;;;;;12.48;53.08;100224.50;5111331;27;11437;-77
2020/12/07 13:46:08;;;;;;;;;0.00;0.00;;;;;13.03;53.29;100226.22;5111336;27;11534;-79
2020/12/07 13:48:35;;;;;;;;;1.00;0.00;;;;;13.43;52.55;100170.00;5113765;27;11440;-79
2020/12/07 13:51:02;;;;;;;;;1.00;0.00;;;;;13.76;53.87;100156.69;5111729;27;11434;-78
2020/12/07 13:53:28;;;;;;;;;0.00;0.00;;;;;14.09;53.10;100156.44;5111544;28;12168;-81
2020/12/07 13:55:54;;;;;;;;;0.00;0.00;;;;;14.10;51.88;100150.28;5120157;27;11454;-75
2020/12/07 13:58:20;;;;;;;;;0.00;0.00;;;;;14.09;52.07;100180.16;5111092;27;11507;-77
2020/12/07 14:00:47;;;;;;;;;0.00;0.00;;;;;14.00;53.34;100196.00;5110052;27;11510;-79
2020/12/07 14:03:13;;;;;;;;;0.00;0.00;;;;;14.17;52.75;100220.44;5109683;27;11469;-80
2020/12/07 14:05:44;;;;;;;;;1.75;1.75;;;;;13.86;53.33;100226.81;5109694;27;11460;-76
2020/12/07 14:08:10;;;;;;;;;0.50;0.00;;;;;13.82;52.77;100238.22;5123207;27;11444;-77
2020/12/07 14:10:38;;;;;;;;;0.00;0.00;;;;;14.07;54.11;100267.03;5108132;28;11444;-78
2020/12/07 14:13:04;;;;;;;;;0.00;0.00;;;;;14.04;53.92;100263.53;5103597;28;12197;-76
2020/12/07 14:15:31;;;;;;;;;0.00;0.00;;;;;12.90;54.12;100250.75;5106843;28;11516;-73
2020/12/07 14:18:01;;;;;;;;;0.00;0.00;;;;;13.55;50.56;100249.75;5098749;28;11415;-76
2020/12/07 14:20:31;;;;;;;;;0.00;0.00;;;;;13.73;51.87;100249.66;5103268;28;11489;-79
2020/12/07 14:23:19;;;;;;;;;0.00;0.00;;;;;14.21;50.47;100248.53;5101828;28;11611;-74
2020/12/07 14:26:05;;;;;;;;;0.00;0.00;;;;;14.21;50.14;100248.53;5099566;28;12075;-74
2020/12/07 14:31:37;;;;;;;;;0.00;0.00;;;;;14.04;50.15;100255.66;5082711;28;11427;-75
2020/12/07 14:40:01;;;;;;;;;0.00;0.00;;;;;13.90;50.02;100257.47;5098830;28;11512;-78
2020/12/07 14:42:27;;;;;;;;;0.00;0.00;;;;;13.62;50.51;100266.38;5103405;28;11566;-76
2020/12/07 14:44:53;;;;;;;;;0.00;0.00;;;;;13.68;50.69;100235.66;5102179;28;11417;-73
2020/12/07 14:47:23;;;;;;;;;0.00;0.00;;;;;13.77;50.07;100251.41;5104046;28;11486;-74
2020/12/07 14:49:56;;;;;;;;;0.00;0.00;;;;;13.92;50.47;100258.34;5101853;28;11550;-74
2020/12/07 14:52:24;;;;;;;;;0.00;0.00;;;;;13.77;50.88;100256.69;5101715;28;11457;-75
2020/12/07 14:54:57;;;;;;;;;0.00;0.00;;;;;13.87;50.73;100252.22;5093346;28;11533;-76
2020/12/07 15:03:30;;;;;;;;;0.00;0.00;;;;;13.97;50.14;100259.22;5096623;28;11473;-75
2020/12/07 15:05:56;;;;;;;;;0.00;0.00;;;;;13.97;49.40;100253.94;5093763;28;11481;-75
2020/12/07 15:08:54;;;;;;;;;0.25;0.25;;;;;13.93;50.81;100252.19;5095244;28;12198;-72
2020/12/07 15:11:32;;;;;;;;;1.00;1.00;;;;;13.46;52.30;100254.16;5094803;28;8826;-73
2020/12/07 15:14:01;;;;;;;;;1.00;1.00;;;;;13.24;52.18;100215.66;5096185;28;11473;-72
2020/12/07 15:16:29;;;;;;;;;4.00;3.00;;;;;13.59;52.91;100246.22;5096113;28;11460;-69
2020/12/07 15:18:56;;;;;;;;;19.25;14.00;;;;;13.73;53.10;100225.09;5099613;28;11526;-67
2020/12/07 15:21:24;;;;;;;;;6.25;5.00;;;;;13.44;53.30;100250.66;5095575;28;11616;-66
2020/12/07 15:23:50;;;;;;;;;3.00;1.00;;;;;13.09;54.22;100252.50;5097452;28;11466;-67
2020/12/07 15:26:17;;;;;;;;;1.25;1.25;;;;;12.94;54.43;100252.50;5104609;28;11540;-67
2020/12/07 15:28:44;;;;;;;;;3.75;2.00;;;;;12.86;54.16;100243.72;5100462;28;11479;-69
2020/12/07 15:31:12;;;;;;;;;2.25;2.25;;;;;12.91;54.79;100257.75;5102623;28;11455;-68
2020/12/07 15:33:40;;;;;;;;;6.25;4.00;;;;;12.58;56.03;100247.25;5098647;28;11525;-68
2020/12/07 15:36:08;;;;;;;;;4.00;4.00;;;;;13.12;55.21;100248.13;5097296;28;11560;-66
2020/12/07 15:38:35;;;;;;;;;1.25;1.25;;;;;12.73;55.78;100247.25;5097979;28;11435;-68
2020/12/07 15:41:02;;;;;;;;;7.75;4.00;;;;;12.92;55.82;100254.25;5103408;28;11544;-67
2020/12/07 15:43:28;;;;;;;;;9.00;9.00;;;;;12.94;56.44;100252.50;5097615;28;11469;-67
2020/12/07 15:45:56;;;;;;;;;8.00;8.00;;;;;13.17;55.95;100240.22;5099375;28;11517;-67
2020/12/07 15:48:23;;;;;;;;;7.25;7.00;;;;;13.32;55.83;100251.56;5097967;28;12223;-67
2020/12/07 15:50:49;;;;;;;;;4.50;4.25;;;;;13.35;56.08;100261.19;5097240;28;11533;-67
2020/12/07 15:53:16;;;;;;;;;2.25;2.25;;;;;13.49;54.00;100248.88;5099931;28;11450;-67
2020/12/07 15:55:45;;;;;;;;;2.50;2.00;;;;;13.67;53.29;100259.34;5100074;28;12321;-68
2020/12/07 15:58:12;;;;;;;;;2.50;1.00;;;;;13.50;53.41;100255.91;5098011;28;12215;-67
2020/12/07 16:00:39;;;;;;;;;1.00;1.00;;;;;13.65;53.87;100258.47;5095124;28;11607;-67
2020/12/07 16:03:08;;;;;;;;;7.00;3.00;;;;;13.66;53.88;100257.59;5103604;28;11449;-68
2020/12/07 16:05:34;;;;;;;;;3.75;3.00;;;;;13.66;54.48;100257.59;5093057;28;11447;-68
2020/12/07 16:08:00;;;;;;;;;2.00;2.00;;;;;13.32;55.99;100255.97;5101112;28;12279;-67
2020/12/07 16:10:26;;;;;;;;;3.50;2.75;;;;;13.32;55.23;100250.72;5098431;28;11541;-69
2020/12/07 16:12:53;;;;;;;;;6.00;3.50;;;;;13.53;55.28;100263.78;5097709;28;11475;-67
2020/12/07 16:15:19;;;;;;;;;6.25;6.25;;;;;13.34;56.51;100254.19;5099343;28;11971;-66
2020/12/07 16:17:45;;;;;;;;;7.25;6.00;;;;;13.29;55.84;100262.09;5098524;28;11521;-66
2020/12/07 16:20:14;;;;;;;;;6.00;3.25;;;;;13.30;55.24;100255.06;5101295;28;11519;-67
2020/12/07 16:22:41;;;;;;;;;5.25;5.00;;;;;13.24;56.38;100262.97;5101798;28;11531;-67
2020/12/07 16:25:08;;;;;;;;;6.75;6.75;;;;;13.05;56.88;100248.13;5101737;28;11544;-68
2020/12/07 16:27:34;;;;;;;;;4.75;3.50;;;;;13.19;56.22;100267.38;5098666;28;11507;-66
2020/12/07 16:30:00;;;;;;;;;10.00;7.00;;;;;13.03;57.42;100268.28;5099389;28;10982;-67
2020/12/07 16:32:27;;;;;;;;;5.00;5.00;;;;;13.29;57.07;100262.09;5101764;28;12324;-65
2020/12/07 16:34:55;;;;;;;;;11.50;11.50;;;;;13.29;56.67;100263.84;5095397;28;11588;-64
2020/12/07 16:37:23;;;;;;;;;6.00;6.00;;;;;13.01;57.40;100265.63;5097495;28;12291;-63
2020/12/07 16:39:50;;;;;;;;;5.00;5.00;;;;;13.29;56.66;100255.97;5100204;28;11470;-64
2020/12/07 16:42:16;;;;;;;;;7.00;7.00;;;;;13.05;56.97;100266.53;5097191;28;11476;-63
2020/12/07 16:44:43;;;;;;;;;7.25;7.00;;;;;12.76;57.78;100260.38;5089622;28;11478;-64
2020/12/07 16:47:10;;;;;;;;;9.00;8.25;;;;;12.87;57.63;100256.00;5058961;28;11485;-64
2020/12/07 16:49:40;;;;;;;;;7.00;5.75;;;;;13.32;56.47;100261.22;5025796;28;11472;-64
2020/12/07 16:52:06;;;;;;;;;8.75;8.00;;;;;13.21;57.11;100270.91;5026246;28;12173;-64
2020/12/07 16:54:33;;;;;;;;;6.25;6.00;;;;;13.36;56.17;100273.47;5027790;28;11520;-64
2020/12/07 16:57:00;;;;;;;;;13.75;8.50;;;;;13.15;56.57;100273.50;5026809;28;11459;-64
2020/12/07 16:59:26;;;;;;;;;13.00;9.25;;;;;12.92;57.88;100285.78;5025902;28;11585;-68
2020/12/07 17:01:52;;;;;;;;;8.00;6.75;;;;;13.19;57.77;100277.88;5027099;28;11603;-65
2020/12/07 17:04:18;;;;;;;;;12.00;12.00;;;;;13.19;57.89;100275.25;5043748;28;11554;-64
2020/12/07 17:06:44;;;;;;;;;15.50;10.00;;;;;13.06;58.73;100268.28;5047788;28;11584;-65
2020/12/07 17:09:11;;;;;;;;;8.00;6.75;;;;;13.09;58.51;100284.03;5049623;28;11604;-65
2020/12/07 17:11:38;;;;;;;;;7.00;7.00;;;;;12.91;59.08;100257.75;5048005;28;11760;-66
2020/12/07 17:14:04;;;;;;;;;10.25;8.00;;;;;13.07;58.86;100284.06;5043463;28;12285;-65
2020/12/07 17:16:31;;;;;;;;;6.50;6.50;;;;;13.13;58.63;100283.16;5048065;28;11717;-65
2020/12/07 17:18:57;;;;;;;;;7.00;7.00;;;;;13.12;57.90;100284.03;5049157;28;12514;-68
2020/12/07 17:21:28;;;;;;;;;8.50;8.00;;;;;13.19;57.18;100285.78;5049439;28;11517;-67
2020/12/07 17:23:54;;;;;;;;;8.25;8.25;;;;;13.06;57.28;100284.06;5049156;28;11568;-67
2020/12/07 17:26:22;;;;;;;;;10.50;8.75;;;;;12.84;58.04;100292.81;5049331;28;11579;-65
2020/12/07 17:28:49;;;;;;;;;8.00;7.00;;;;;13.03;57.80;100289.31;5049253;28;11523;-68
2020/12/07 17:31:15;;;;;;;;;9.00;8.50;;;;;13.18;57.29;100278.78;5044866;28;11533;-65
2020/12/07 17:33:42;;;;;;;;;10.25;8.00;;;;;13.03;57.83;100289.31;5047590;28;11731;-65
2020/12/07 17:36:08;;;;;;;;;10.00;8.00;;;;;13.01;59.14;100285.81;5047130;28;11609;-66
2020/12/07 17:38:34;;;;;;;;;9.50;8.00;;;;;12.88;59.41;100297.16;5047819;28;11521;-65
2020/12/07 17:41:01;;;;;;;;;8.00;8.00;;;;;12.87;59.99;100298.03;5047054;28;11535;-65
2020/12/07 17:43:27;;;;;;;;;10.00;10.00;;;;;13.00;59.24;100290.19;5047924;28;11602;-65
2020/12/07 17:45:55;;;;;;;;;10.50;9.25;;;;;12.90;59.66;100298.06;5050232;28;11553;-66
2020/12/07 17:48:22;;;;;;;;;8.00;7.75;;;;;13.22;59.26;100296.31;5049316;28;11535;-64
2020/12/07 17:50:50;;;;;;;;;9.25;8.50;;;;;13.20;59.04;100292.78;5050553;28;11607;-64
2020/12/07 17:53:17;;;;;;;;;8.00;8.00;;;;;13.14;58.26;100288.41;5047480;28;11537;-64
2020/12/07 17:55:43;;;;;;;;;8.50;8.50;;;;;13.10;58.59;100296.31;5050525;28;11625;-66
2020/12/07 17:58:10;;;;;;;;;7.00;6.25;;;;;12.98;58.63;100285.81;5051065;28;12358;-68
2020/12/07 18:00:36;;;;;;;;;10.25;10.25;;;;;13.00;59.29;100281.44;5052054;28;11577;-68
2020/12/07 18:03:04;;;;;;;;;8.00;7.00;;;;;13.00;59.31;100289.31;5050780;28;11665;-68
2020/12/07 18:05:30;;;;;;;;;7.00;7.00;;;;;12.68;59.50;100288.41;5052630;28;11506;-68
2020/12/07 18:07:56;;;;;;;;;8.25;7.50;;;;;12.88;59.45;100286.63;5052282;28;12197;-69
2020/12/07 18:10:22;;;;;;;;;9.25;8.50;;;;;12.92;59.58;100296.28;5052644;28;11486;-66
2020/12/07 18:12:49;;;;;;;;;12.75;9.75;;;;;12.67;58.92;100294.56;5052048;28;11515;-65
2020/12/07 18:15:15;;;;;;;;;12.50;9.00;;;;;12.39;60.16;100308.50;5052219;28;12289;-65
2020/12/07 18:17:41;;;;;;;;;8.00;8.00;;;;;12.67;59.79;100305.06;5052316;28;11549;-66
2020/12/07 18:20:08;;;;;;;;;8.50;8.00;;;;;12.74;59.32;100306.81;5052013;28;11505;-66
2020/12/07 18:22:35;;;;;;;;;10.00;10.00;;;;;12.59;59.06;100296.28;5051768;28;11571;-67
2020/12/07 18:25:03;;;;;;;;;13.50;10.25;;;;;12.57;59.57;100298.03;5050632;28;11531;-67
2020/12/07 18:27:30;;;;;;;;;12.00;10.25;;;;;12.30;60.69;100308.50;5051882;28;11617;-67
2020/12/07 18:29:56;;;;;;;;;11.00;9.00;;;;;12.59;60.71;100306.78;5049995;28;11595;-67
2020/12/07 18:32:22;;;;;;;;;14.00;13.25;;;;;12.39;60.12;100277.00;5051071;28;11625;-65
2020/12/07 18:34:49;;;;;;;;;13.75;12.00;;;;;12.51;61.26;100298.03;5050485;28;11631;-67
2020/12/07 18:37:16;;;;;;;;;13.50;8.25;;;;;12.53;60.67;100296.28;5051431;28;11572;-67
2020/12/07 18:39:42;;;;;;;;;15.25;14.25;;;;;12.46;60.86;100305.88;5051431;28;11725;-67
2020/12/07 18:42:08;;;;;;;;;12.75;10.75;;;;;12.22;61.10;100283.97;5051038;28;11573;-66
2020/12/07 18:44:35;;;;;;;;;25.75;22.75;;;;;12.19;60.68;100294.47;5049555;28;11646;-67
2020/12/07 18:47:01;;;;;;;;;32.33;24.67;;;;;11.79;61.62;100308.31;5047458;28;11708;-66
2020/12/07 18:49:28;;;;;;;;;39.00;37.00;;;;;11.43;63.11;100308.13;5048552;28;8857;-66
2020/12/07 18:51:55;;;;;;;;;36.00;34.00;;;;;11.42;63.31;100306.34;5048650;28;8849;-66
2020/12/07 18:54:22;;;;;;;;;45.00;38.33;;;;;11.70;62.80;100295.19;5048103;28;8845;-66
2020/12/07 18:56:49;;;;;;;;;41.67;34.67;;;;;11.01;64.63;100307.84;5048933;28;8887;-67
2020/12/07 18:59:15;;;;;;;;;34.67;31.33;;;;;10.64;65.14;100248.19;5050163;28;8841;-67
2020/12/07 19:01:41;;;;;;;;;37.33;32.33;;;;;10.99;65.38;100304.31;5050025;28;8946;-66
2020/12/07 19:04:08;;;;;;;;;49.67;38.67;;;;;11.06;65.02;100303.50;5049864;28;8853;-66
2020/12/07 19:06:34;;;;;;;;;47.33;40.00;;;;;10.93;65.02;100304.28;5050506;28;8861;-66
2020/12/07 19:09:00;;;;;;;;;49.67;43.00;;;;;10.68;65.81;100307.59;5049556;28;8849;-65
2020/12/07 19:11:27;;;;;;;;;49.00;41.00;;;;;11.02;65.35;100299.09;5050166;28;9570;-66
2020/12/07 19:13:54;;;;;;;;;53.67;43.00;;;;;10.69;66.38;100293.63;5049398;28;8845;-65
2020/12/07 19:16:20;;;;;;;;;47.67;39.67;;;;;11.23;65.34;100299.25;5049903;28;8861;-65
2020/12/07 19:18:47;;;;;;;;;45.67;41.00;;;;;11.29;65.18;100299.28;5049016;28;8858;-65
2020/12/07 19:21:15;;;;;;;;;48.00;39.33;;;;;11.54;64.48;100295.94;5050047;28;8954;-66
2020/12/07 19:23:41;;;;;;;;;55.33;44.33;;;;;11.40;64.74;100297.59;5049876;28;8856;-66
2020/12/07 19:26:07;;;;;;;;;57.67;47.00;;;;;11.68;64.12;100294.28;5049060;28;8869;-66
2020/12/07 19:28:34;;;;;;;;;58.67;47.00;;;;;11.75;63.34;100301.34;5050176;28;8915;-66
2020/12/07 19:31:01;;;;;;;;;40.00;34.67;;;;;11.80;63.13;100284.72;5048622;28;9667;-66
2020/12/07 19:33:27;;;;;;;;;60.67;49.33;;;;;11.89;63.26;100289.13;5049508;28;8861;-69
2020/12/07 19:35:54;;;;;;;;;64.25;51.25;;;;;11.80;62.66;100289.09;5049284;28;9070;-65
2020/12/07 19:38:20;;;;;;;;;61.00;50.50;;;;;11.27;62.98;100280.06;5049258;28;8963;-64
2020/12/07 19:40:46;;;;;;;;;61.33;48.00;;;;;11.06;64.79;100285.19;5048826;28;9688;-64
2020/12/07 19:43:12;;;;;;;;;62.75;51.25;;;;;10.74;65.77;100291.91;5049422;28;8946;-64
2020/12/07 19:45:40;;;;;;;;;59.50;49.00;;;;;10.74;65.46;100297.16;5049522;28;8861;-63
2020/12/07 19:48:06;;;;;;;;;59.50;48.25;;;;;10.69;65.88;100288.38;5048369;28;8849;-63
2020/12/07 19:50:32;;;;;;;;;57.67;46.33;;;;;10.90;65.53;100293.78;5049298;28;8845;-66
2020/12/07 19:52:58;;;;;;;;;61.00;50.00;;;;;10.78;65.52;100288.47;5048472;28;8980;-66
2020/12/07 19:55:25;;;;;;;;;57.33;48.33;;;;;10.84;64.55;100283.28;5049258;28;8861;-68
2020/12/07 19:57:51;;;;;;;;;62.50;49.50;;;;;10.75;65.04;100283.19;5048373;28;8971;-68
2020/12/07 20:00:17;;;;;;;;;62.33;48.67;;;;;10.99;64.97;100288.59;5049068;28;8841;-69
2020/12/07 20:02:44;;;;;;;;;61.67;49.00;;;;;11.20;64.20;100288.75;5048422;28;8955;-68
2020/12/07 20:05:11;;;;;;;;;58.00;48.25;;;;;10.91;65.48;100290.28;5049104;28;8915;-66
2020/12/07 20:07:37;;;;;;;;;55.00;43.00;;;;;10.91;64.76;100290.28;5048369;28;8850;-66
2020/12/07 20:10:05;;;;;;;;;55.67;44.67;;;;;10.99;64.33;100288.59;5044310;28;8945;-68
2020/12/07 20:12:31;;;;;;;;;58.00;48.67;;;;;11.01;64.91;100281.66;5047744;28;8954;-67
2020/12/07 20:14:58;;;;;;;;;60.67;50.00;;;;;10.83;67.15;100289.34;5046550;28;8857;-67
2020/12/07 20:17:25;;;;;;;;;62.00;51.67;;;;;11.21;64.73;100287.88;5047683;28;8857;-68
2020/12/07 20:19:52;;;;;;;;;59.00;49.00;;;;;11.18;64.17;100285.25;5047182;28;8891;-67
2020/12/07 20:22:19;;;;;;;;;58.75;47.25;;;;;11.28;63.86;100281.81;5047443;28;8901;-67
2020/12/07 20:24:46;;;;;;;;;59.67;47.33;;;;;10.88;65.67;100285.03;5046605;28;8944;-67
2020/12/07 20:27:12;;;;;;;;;62.00;50.50;;;;;11.31;64.38;100276.56;5047605;28;8842;-66
2020/12/07 20:29:38;;;;;;;;;64.00;51.67;;;;;11.43;64.31;100271.44;5047536;28;8922;-68
2020/12/07 20:32:04;;;;;;;;;68.75;54.00;;;;;11.30;63.54;100269.59;5047080;28;8853;-68
2020/12/07 20:34:31;;;;;;;;;60.00;51.00;;;;;11.36;63.49;100270.50;5047633;28;8857;-68
2020/12/07 20:36:58;;;;;;;;;65.75;54.00;;;;;11.23;63.85;100257.31;5046607;28;8822;-68
2020/12/07 20:39:24;;;;;;;;;62.75;51.75;;;;;11.25;64.30;100255.56;5047778;28;8845;-68
2020/12/07 20:41:50;;;;;;;;;62.50;52.25;;;;;11.06;65.00;100248.50;5047167;28;9050;-68
2020/12/07 20:44:17;;;;;;;;;63.00;52.50;;;;;11.39;65.21;100238.19;5048578;28;8942;-68
2020/12/07 20:46:43;;;;;;;;;65.00;54.25;;;;;11.43;64.72;100229.47;5047675;28;8833;-68
2020/12/07 20:49:10;;;;;;;;;64.50;53.75;;;;;10.83;65.73;100244.81;5048330;28;8837;-68
2020/12/07 20:51:36;;;;;;;;;66.50;53.00;;;;;10.72;66.01;100246.50;5048373;28;8923;-68
2020/12/07 20:54:04;;;;;;;;;61.50;51.25;;;;;10.67;66.36;100243.84;5043635;28;9295;-68
2020/12/07 20:56:30;;;;;;;;;59.50;50.00;;;;;11.13;65.82;100250.28;5048032;28;8948;-68
2020/12/07 20:58:57;;;;;;;;;62.50;51.00;;;;;10.96;65.83;100246.69;5047447;28;8837;-68
2020/12/07 21:01:23;;;;;;;;;61.25;51.00;;;;;10.88;66.43;100253.59;5048085;28;8977;-68
2020/12/07 21:03:49;;;;;;;;;61.25;51.50;;;;;10.04;67.47;100247.63;5047610;28;8849;-69